Time;durP1;ratioP1;P1;durP2;ratioP2;P2;SDS_P1;SDS_P2;PMS_P1;PMS_P2;Temp;Humidity;BMP_temperature;BMP_pressure;BME280_temperature;BME280_humidity;BME280_pressure;Samples;Min_cycle;Max_cycle;Signal;HPM_P1;HPM_P2
2023/04/02 00:01:06;;;;;;;1.88;1.10;;;;;;;11.31;56.23;98770.41;3170045;28;20503;-64
2023/04/02 00:02:47;;;;;;;2.78;1.52;;;;;;;11.27;55.80;98771.50;3163143;28;20047;-64
2023/04/02 00:04:22;;;;;;;2.22;1.30;;;;;;;11.27;55.86;98774.13;3169952;28;20104;-65
2023/04/02 00:05:55;;;;;;;1.80;1.30;;;;;;;11.26;56.13;98786.31;3170400;28;20071;-65
2023/04/02 00:07:32;;;;;;;3.88;1.40;;;;;;;11.19;55.93;98771.19;3170587;28;20069;-64
2023/04/02 00:09:22;;;;;;;4.15;1.35;;;;;;;11.16;56.03;98775.66;3169505;28;20047;-65
2023/04/02 00:10:56;;;;;;;3.00;1.83;;;;;;;11.10;56.42;98776.03;3169716;28;20103;-65
2023/04/02 00:12:28;;;;;;;2.08;1.20;;;;;;;11.06;56.32;98769.38;3162089;28;20222;-65
2023/04/02 00:14:01;;;;;;;1.77;1.27;;;;;;;11.02;56.18;98767.88;3170293;28;20063;-65
2023/04/02 00:15:35;;;;;;;2.35;1.40;;;;;;;11.00;56.59;98767.13;3169564;28;20130;-64
2023/04/02 00:17:06;;;;;;;;;;;;;;;10.87;56.46;98753.22;3171095;28;20070;-64
2023/04/02 00:18:44;;;;;;;3.00;1.30;;;;;;;10.87;56.53;98763.63;3169848;28;19920;-63
2023/04/02 00:20:18;;;;;;;2.78;1.40;;;;;;;10.87;56.85;98767.06;3165302;28;20100;-65
2023/04/02 00:21:51;;;;;;;2.92;1.17;;;;;;;10.89;56.75;98761.78;3170197;28;20051;-64
2023/04/02 00:23:24;;;;;;;1.90;1.25;;;;;;;10.88;56.44;98768.75;3169915;28;20078;-65
2023/04/02 00:24:57;;;;;;;2.25;1.20;;;;;;;10.87;56.58;98763.63;3170051;28;20572;-65
2023/04/02 00:26:31;;;;;;;2.15;1.40;;;;;;;10.84;56.79;98764.66;3170191;28;20112;-64
2023/04/02 00:28:03;;;;;;;2.55;1.50;;;;;;;10.85;56.47;98770.69;3169978;28;20044;-65
2023/04/02 00:29:35;;;;;;;1.35;0.90;;;;;;;10.84;56.73;98766.44;3170035;28;20054;-65
2023/04/02 00:31:11;;;;;;;2.72;1.40;;;;;;;10.83;56.77;98767.38;3169917;28;20180;-64
2023/04/02 00:32:43;;;;;;;3.95;1.33;;;;;;;10.82;56.86;98771.72;3169769;28;20044;-65
2023/04/02 00:34:19;;;;;;;1.77;1.10;;;;;;;10.82;56.74;98765.69;3170133;28;20054;-65
2023/04/02 00:35:54;;;;;;;1.98;1.15;;;;;;;10.80;56.57;98768.41;3162808;28;20143;-66
2023/04/02 00:37:37;;;;;;;2.00;1.20;;;;;;;10.81;56.86;98769.22;3166918;28;20051;-67
2023/04/02 00:39:20;;;;;;;4.40;1.40;;;;;;;10.78;56.76;98766.81;3170133;28;20079;-65
2023/04/02 00:40:56;;;;;;;2.25;1.45;;;;;;;10.74;56.89;98774.00;3169662;28;20067;-66
2023/04/02 00:42:31;;;;;;;2.20;1.20;;;;;;;10.72;56.96;98768.03;3169873;28;20134;-65
2023/04/02 00:44:04;;;;;;;2.65;1.58;;;;;;;10.70;56.81;98770.72;3169892;28;20534;-65
2023/04/02 00:45:38;;;;;;;3.38;1.48;;;;;;;10.70;57.23;98782.91;3169251;28;20080;-65
2023/04/02 00:47:19;;;;;;;3.47;1.88;;;;;;;10.66;57.35;98782.25;3170014;28;20560;-65
2023/04/02 00:48:54;;;;;;;2.38;1.70;;;;;;;10.68;57.17;98779.59;3169921;28;20120;-65
2023/04/02 00:50:30;;;;;;;3.92;1.50;;;;;;;10.66;57.50;98782.25;3170025;28;20044;-65
2023/04/02 00:52:06;;;;;;;3.10;1.52;;;;;;;10.65;57.59;98787.59;3169664;28;20489;-66
2023/04/02 00:53:39;;;;;;;2.95;1.40;;;;;;;10.61;57.66;98783.47;3169142;28;20039;-66
2023/04/02 00:55:17;;;;;;;2.22;1.25;;;;;;;10.59;57.65;98780.97;3169842;28;20520;-66
2023/04/02 00:56:52;;;;;;;3.03;1.58;;;;;;;10.56;57.54;98777.72;3169619;28;20067;-66
2023/04/02 00:58:28;;;;;;;2.47;1.13;;;;;;;10.58;57.52;98781.91;3169687;28;20047;-66
2023/04/02 01:00:10;;;;;;;2.55;1.33;;;;;;;10.56;57.66;98770.75;3169371;28;20070;-66
2023/04/02 01:01:42;;;;;;;2.63;1.20;;;;;;;10.60;57.33;98771.41;3166888;28;20097;-65
2023/04/02 01:03:28;;;;;;;2.30;1.50;;;;;;;10.61;57.46;98767.84;3170004;28;20130;-65
2023/04/02 01:05:02;;;;;;;4.65;1.70;;;;;;;10.61;57.56;98779.09;3169699;28;20083;-65
2023/04/02 01:06:37;;;;;;;2.45;1.25;;;;;;;10.63;57.19;98776.41;3169480;28;20453;-65
2023/04/02 01:08:20;;;;;;;2.17;1.20;;;;;;;10.62;57.27;98779.97;3168431;28;20047;-65
2023/04/02 01:10:08;;;;;;;2.42;1.23;;;;;;;10.60;57.44;98781.81;3169613;28;20516;-65
2023/04/02 01:11:55;;;;;;;2.50;1.35;;;;;;;10.59;57.38;98774.91;3169768;28;20058;-65
2023/04/02 01:13:33;;;;;;;2.42;1.50;;;;;;;10.57;57.39;98788.03;3165456;28;20050;-66
2023/04/02 01:15:12;;;;;;;2.90;1.40;;;;;;;10.50;57.05;98773.75;3167760;28;20039;-66
2023/04/02 01:16:52;;;;;;;2.70;1.60;;;;;;;10.53;57.09;98788.31;3169634;28;20059;-64
2023/04/02 01:18:37;;;;;;;2.13;1.23;;;;;;;10.49;57.46;98792.88;3157321;28;20048;-65
2023/04/02 01:20:48;;;;;;;2.17;1.35;;;;;;;10.44;57.35;98785.38;3165027;28;20052;-65
2023/04/02 01:22:29;;;;;;;2.25;1.38;;;;;;;10.41;57.49;98789.88;3148636;28;20052;-65
2023/04/02 01:24:04;;;;;;;2.15;1.40;;;;;;;10.40;57.61;98793.44;3172443;28;20134;-65
2023/04/02 01:25:42;;;;;;;2.47;1.30;;;;;;;10.37;57.50;98786.66;3172310;28;20130;-65
2023/04/02 01:27:18;;;;;;;2.05;1.20;;;;;;;10.38;57.40;98796.16;3172009;28;20067;-65
2023/04/02 01:29:02;;;;;;;1.80;1.20;;;;;;;10.39;57.31;98792.59;3171763;28;20541;-65
2023/04/02 01:30:34;;;;;;;;;;;;;;;10.35;57.41;98792.88;3172115;28;20043;-65
2023/04/02 01:32:10;;;;;;;2.97;1.65;;;;;;;10.35;57.74;98790.25;3172588;28;20036;-65
2023/04/02 01:33:41;;;;;;;2.90;1.30;;;;;;;10.38;57.64;98792.69;3172131;28;20108;-65
2023/04/02 01:35:14;;;;;;;1.88;1.20;;;;;;;10.40;57.46;98790.84;3172306;28;20539;-65
2023/04/02 01:36:58;;;;;;;6.45;1.30;;;;;;;10.41;57.32;98792.50;3171991;28;20130;-65
2023/04/02 01:38:37;;;;;;;2.60;1.20;;;;;;;10.40;57.27;98793.44;3172054;28;20070;-65
2023/04/02 01:40:32;;;;;;;2.85;1.30;;;;;;;10.38;57.16;98793.53;3171888;28;20039;-64
2023/04/02 01:42:13;;;;;;;2.30;1.15;;;;;;;10.38;57.56;98790.09;3171592;28;20397;-64
2023/04/02 01:43:53;;;;;;;3.10;1.33;;;;;;;10.39;57.52;98789.16;3172030;28;20055;-65
2023/04/02 01:45:27;;;;;;;2.45;1.50;;;;;;;10.39;57.18;98792.59;3171684;28;20085;-65
2023/04/02 01:47:02;;;;;;;1.20;1.00;;;;;;;10.42;57.03;98788.97;3172041;28;20053;-65
2023/04/02 01:48:34;;;;;;;2.50;1.20;;;;;;;10.44;57.05;98795.78;3171967;28;20051;-65
2023/04/02 01:50:20;;;;;;;2.28;1.00;;;;;;;10.44;57.04;98792.31;3171802;28;20048;-65
2023/04/02 01:51:56;;;;;;;1.90;1.10;;;;;;;10.43;56.87;98795.84;3171237;28;20078;-65
2023/04/02 01:53:30;;;;;;;2.35;1.10;;;;;;;10.45;56.97;98799.22;3172317;28;20075;-65
2023/04/02 01:55:02;;;;;;;2.25;1.38;;;;;;;10.46;57.06;98796.50;3172149;28;20078;-65
2023/04/02 01:56:34;;;;;;;2.65;1.10;;;;;;;10.48;56.92;98792.03;3171820;28;20118;-65
2023/04/02 01:58:08;;;;;;;1.75;0.98;;;;;;;10.51;56.75;98798.00;3171806;28;20154;-65
2023/04/02 01:59:41;;;;;;;6.47;1.20;;;;;;;10.52;56.85;98797.91;3170343;28;20051;-64
2023/04/02 02:01:16;;;;;;;2.20;1.20;;;;;;;10.49;56.79;98785.06;3171811;28;20047;-65
2023/04/02 02:02:50;;;;;;;1.67;1.08;;;;;;;10.54;56.80;98795.22;3164705;28;20058;-65
2023/04/02 02:04:21;;;;;;;1.77;1.20;;;;;;;10.53;56.81;98794.38;3170974;28;20055;-65
2023/04/02 02:05:54;;;;;;;2.13;1.15;;;;;;;10.53;56.63;98799.59;3171794;28;20043;-65
2023/04/02 02:07:27;;;;;;;1.58;0.80;;;;;;;10.49;56.78;98795.47;3171343;28;20142;-66
2023/04/02 02:09:03;;;;;;;2.13;1.10;;;;;;;10.48;56.74;98788.59;3171714;28;20047;-64
2023/04/02 02:10:37;;;;;;;2.72;1.00;;;;;;;10.42;56.99;98791.59;3171352;28;20060;-64
2023/04/02 02:12:12;;;;;;;2.75;1.08;;;;;;;10.38;56.87;98788.34;3172001;28;20051;-64
2023/04/02 02:13:46;;;;;;;1.50;1.05;;;;;;;10.34;57.27;98786.00;3171251;28;20051;-64
2023/04/02 02:15:22;;;;;;;1.42;0.90;;;;;;;10.31;57.09;98776.59;3171435;28;20052;-64
2023/04/02 02:16:56;;;;;;;2.00;1.05;;;;;;;10.30;57.43;98787.97;3171289;28;20051;-64
2023/04/02 02:18:29;;;;;;;1.88;1.05;;;;;;;10.25;57.55;98775.19;3171443;28;20051;-65
2023/04/02 02:20:08;;;;;;;2.30;1.42;;;;;;;10.25;57.67;98782.97;3167463;28;20062;-65
2023/04/02 02:21:43;;;;;;;1.17;0.70;;;;;;;10.24;57.75;98777.88;3170938;28;20040;-64
2023/04/02 02:23:16;;;;;;;1.20;0.60;;;;;;;10.25;57.40;98775.19;3171712;28;20092;-65
2023/04/02 02:24:49;;;;;;;2.78;1.38;;;;;;;10.24;57.73;98772.69;3171481;28;20051;-64
2023/04/02 02:26:23;;;;;;;2.17;1.02;;;;;;;10.23;57.52;98761.44;3162330;28;20539;-65
2023/04/02 02:28:02;;;;;;;2.30;0.90;;;;;;;10.21;57.82;98768.50;3170313;28;20436;-64
2023/04/02 02:29:39;;;;;;;1.52;0.80;;;;;;;10.21;57.62;98758.09;3158464;28;20039;-64
2023/04/02 02:31:18;;;;;;;3.55;1.00;;;;;;;9.79;57.50;98684.31;3158773;28;20920;-64
2023/04/02 02:33:01;;;;;;;1.92;1.10;;;;;;;10.21;57.81;98760.69;3158892;28;20153;-64
2023/04/02 02:34:40;;;;;;;2.07;1.10;;;;;;;10.21;57.77;98760.69;3166502;28;20611;-64
2023/04/02 02:36:21;;;;;;;1.50;1.00;;;;;;;10.25;57.51;98762.16;3170901;28;20932;-64
2023/04/02 02:37:59;;;;;;;1.75;0.80;;;;;;;10.27;57.49;98766.50;3171480;28;20047;-64
2023/04/02 02:39:37;;;;;;;1.48;1.00;;;;;;;10.29;57.38;98765.44;3171433;28;20729;-64
2023/04/02 02:41:15;;;;;;;2.28;0.52;;;;;;;10.27;57.50;98761.28;3171290;28;20043;-64
2023/04/02 02:42:51;;;;;;;1.35;0.80;;;;;;;10.32;57.47;98767.88;3171131;28;20063;-65
2023/04/02 02:44:25;;;;;;;1.85;0.80;;;;;;;10.35;57.28;98764.25;3170794;28;20043;-64
2023/04/02 02:45:57;;;;;;;0.73;0.40;;;;;;;10.37;57.03;98765.81;3171251;28;20047;-64
2023/04/02 02:47:31;;;;;;;1.75;0.70;;;;;;;10.39;57.19;98773.56;3171573;28;20052;-63
2023/04/02 02:49:06;;;;;;;2.80;1.00;;;;;;;10.43;57.04;98769.81;3158752;28;20044;-63
2023/04/02 02:50:37;;;;;;;1.15;0.73;;;;;;;10.43;57.14;98775.03;3171081;28;20047;-63
2023/04/02 02:52:15;;;;;;;1.98;0.50;;;;;;;10.44;56.86;98776.69;3170514;28;20047;-63
2023/04/02 02:53:51;;;;;;;2.25;0.80;;;;;;;10.44;57.11;98766.28;3169205;28;20513;-63
2023/04/02 02:55:28;;;;;;;3.45;0.88;;;;;;;10.47;57.15;98771.31;3171479;28;20113;-64
2023/04/02 02:57:03;;;;;;;1.33;1.00;;;;;;;10.47;56.90;98766.13;3170756;28;20056;-64
2023/04/02 02:58:34;;;;;;;1.10;0.75;;;;;;;10.47;57.17;98772.16;3167490;28;20117;-65
2023/04/02 03:00:10;;;;;;;1.85;1.05;;;;;;;10.47;56.94;98768.72;3168792;28;20043;-65
2023/04/02 03:01:42;;;;;;;1.80;0.80;;;;;;;10.47;56.88;98766.94;3170241;28;20417;-64
2023/04/02 03:03:18;;;;;;;3.55;0.82;;;;;;;10.46;57.10;98774.84;3171474;28;20091;-65
2023/04/02 03:04:53;;;;;;;2.17;1.10;;;;;;;10.44;57.34;98774.94;3171015;28;20097;-64
2023/04/02 03:06:25;;;;;;;3.35;0.80;;;;;;;10.45;57.45;98775.78;3170456;28;20485;-65
2023/04/02 03:08:00;;;;;;;1.80;0.80;;;;;;;10.40;57.43;98776.03;3171091;28;20052;-64
2023/04/02 03:09:41;;;;;;;4.90;1.20;;;;;;;10.42;57.68;98773.38;3171008;28;20096;-65
2023/04/02 03:11:18;;;;;;;1.77;1.00;;;;;;;10.42;57.40;98773.38;3171034;28;20040;-65
2023/04/02 03:12:54;;;;;;;2.42;1.20;;;;;;;10.42;57.58;98771.59;3170836;28;20138;-65
2023/04/02 03:14:33;;;;;;;1.42;1.00;;;;;;;10.43;57.72;98781.06;3167101;28;20043;-65
2023/04/02 03:16:12;;;;;;;2.42;1.15;;;;;;;10.43;57.80;98780.22;3170867;28;20488;-65
2023/04/02 03:17:48;;;;;;;1.65;1.00;;;;;;;10.40;57.75;98773.44;3170769;28;20048;-64
2023/04/02 03:19:28;;;;;;;2.45;1.10;;;;;;;10.39;57.56;98777.00;3170999;28;20062;-64
2023/04/02 03:21:11;;;;;;;1.83;1.20;;;;;;;10.37;57.63;98778.00;3167298;28;20043;-63
2023/04/02 03:22:49;;;;;;;6.03;1.05;;;;;;;10.34;57.98;98773.00;3168594;28;20055;-64
2023/04/02 03:24:29;;;;;;;1.63;1.17;;;;;;;10.32;57.99;98772.25;3160551;28;20069;-63
2023/04/02 03:26:07;;;;;;;2.42;1.30;;;;;;;10.31;58.39;98778.38;3160475;28;20089;-63
2023/04/02 03:27:44;;;;;;;2.03;1.00;;;;;;;10.29;58.43;98782.84;3161098;28;20052;-63
2023/04/02 03:29:19;;;;;;;4.07;1.20;;;;;;;10.24;58.56;98786.53;3161776;28;20051;-64
2023/04/02 03:30:58;;;;;;;1.95;1.38;;;;;;;10.21;58.33;98783.28;3161181;28;20078;-65
2023/04/02 03:32:34;;;;;;;1.58;1.05;;;;;;;10.19;58.78;98785.13;3160427;28;20059;-64
2023/04/02 03:34:13;;;;;;;2.80;1.40;;;;;;;10.18;58.74;98786.06;3161008;28;20119;-64
2023/04/02 03:35:53;;;;;;;1.95;0.95;;;;;;;10.17;58.86;98790.41;3161204;27;20047;-64
2023/04/02 03:37:32;;;;;;;2.55;1.40;;;;;;;10.15;58.60;98807.88;3161109;28;20055;-65
2023/04/02 03:39:13;;;;;;;5.40;1.10;;;;;;;10.10;58.90;98796.06;3160286;28;20062;-65
2023/04/02 03:40:57;;;;;;;2.40;1.10;;;;;;;10.08;58.72;98798.75;3161087;28;20051;-65
2023/04/02 03:42:39;;;;;;;2.40;1.20;;;;;;;10.06;58.77;98805.84;3160696;28;20588;-65
2023/04/02 03:44:21;;;;;;;4.68;1.45;;;;;;;10.05;58.89;98809.34;3148183;28;20459;-65
2023/04/02 03:45:57;;;;;;;4.43;1.98;;;;;;;10.03;59.01;98803.41;3148339;28;20582;-65
2023/04/02 03:47:34;;;;;;;3.00;2.10;;;;;;;10.02;59.11;98812.13;3161430;28;20051;-65
2023/04/02 03:49:10;;;;;;;2.30;1.65;;;;;;;10.01;59.45;98810.47;3148507;28;20415;-65
2023/04/02 03:50:47;;;;;;;2.88;1.38;;;;;;;10.00;59.57;98814.84;3147851;28;20426;-65
2023/04/02 03:52:26;;;;;;;2.85;1.17;;;;;;;9.97;59.65;98812.41;3149325;28;20121;-65
2023/04/02 03:53:58;;;;;;;3.75;1.70;;;;;;;9.97;59.46;98811.59;3147948;28;20913;-64
2023/04/02 03:55:33;;;;;;;3.28;1.60;;;;;;;9.96;59.87;98804.69;3149061;28;20646;-65
2023/04/02 03:57:10;;;;;;;3.33;1.33;;;;;;;9.94;59.84;98810.00;3156014;28;20125;-65
2023/04/02 03:58:47;;;;;;;2.78;1.27;;;;;;;9.93;60.18;98800.50;3159805;28;20591;-65
2023/04/02 04:00:26;;;;;;;2.83;1.50;;;;;;;9.94;60.20;98801.34;3160640;28;20479;-64
2023/04/02 04:02:01;;;;;;;2.53;1.58;;;;;;;9.94;59.95;98803.97;3154705;28;20059;-64
2023/04/02 04:03:40;;;;;;;3.45;1.30;;;;;;;9.90;60.26;98803.28;3159727;28;20043;-63
2023/04/02 04:05:26;;;;;;;2.92;1.50;;;;;;;9.54;60.15;98752.50;3160443;28;20083;-66
2023/04/02 04:07:00;;;;;;;2.03;1.20;;;;;;;9.88;60.24;98804.28;3160859;28;20478;-64
2023/04/02 04:08:36;;;;;;;4.90;1.73;;;;;;;9.88;60.53;98801.69;3161425;28;20980;-64
2023/04/02 04:10:18;;;;;;;7.47;2.05;;;;;;;9.85;60.53;98804.47;3160465;28;20138;-64
2023/04/02 04:11:53;;;;;;;2.35;1.20;;;;;;;9.80;60.63;98797.78;3160503;28;20097;-65
2023/04/02 04:13:31;;;;;;;2.22;1.38;;;;;;;9.80;60.87;98792.56;3155397;28;20158;-64
2023/04/02 04:15:09;;;;;;;2.65;1.50;;;;;;;9.80;60.89;98796.94;3148448;28;20109;-64
2023/04/02 04:16:48;;;;;;;5.90;1.30;;;;;;;9.80;60.75;98795.19;3148507;28;20615;-64
2023/04/02 04:18:33;;;;;;;3.58;1.20;;;;;;;9.79;60.83;98795.28;3148414;28;20080;-64
2023/04/02 04:20:20;;;;;;;2.70;1.33;;;;;;;9.81;60.45;98806.41;3152786;28;20578;-64
2023/04/02 04:21:55;;;;;;;4.43;1.38;;;;;;;9.82;60.60;98815.03;3158750;28;20508;-64
2023/04/02 04:23:31;;;;;;;2.95;1.35;;;;;;;9.85;60.70;98812.25;3160485;28;20059;-64
2023/04/02 04:25:06;;;;;;;2.47;1.40;;;;;;;9.87;60.73;98821.66;3160741;28;20111;-65
2023/04/02 04:26:48;;;;;;;3.17;1.63;;;;;;;9.89;60.73;98821.59;3160522;28;20047;-64
2023/04/02 04:28:26;;;;;;;3.28;1.83;;;;;;;9.90;60.54;98815.44;3156316;28;20601;-64
2023/04/02 04:30:04;;;;;;;2.22;1.23;;;;;;;9.48;60.46;98750.25;3160327;28;20322;-64
2023/04/02 04:31:45;;;;;;;4.43;1.20;;;;;;;9.92;60.72;98827.44;3160547;28;20056;-64
2023/04/02 04:33:22;;;;;;;4.43;1.50;;;;;;;9.94;60.54;98828.19;3160645;28;20522;-65
2023/04/02 04:34:57;;;;;;;3.53;1.63;;;;;;;9.98;60.36;98831.44;3159734;28;20106;-65
2023/04/02 04:36:34;;;;;;;2.83;1.35;;;;;;;10.00;60.64;98830.44;3160955;28;20166;-64
2023/04/02 04:38:13;;;;;;;5.18;1.45;;;;;;;10.03;60.25;98824.22;3160758;28;20081;-64
2023/04/02 04:39:50;;;;;;;2.80;1.50;;;;;;;10.05;60.44;98829.31;3160356;28;20083;-64
2023/04/02 04:41:25;;;;;;;2.30;1.35;;;;;;;10.06;60.35;98825.78;3157198;28;20044;-64
2023/04/02 04:43:03;;;;;;;3.47;1.30;;;;;;;10.09;60.39;98826.47;3159757;28;20686;-65
2023/04/02 04:44:43;;;;;;;3.67;1.50;;;;;;;10.11;60.33;98821.16;3160175;28;20287;-64
2023/04/02 04:46:19;;;;;;;2.83;1.15;;;;;;;10.12;60.21;98818.47;3159689;28;20620;-63
2023/04/02 04:47:57;;;;;;;3.60;1.40;;;;;;;10.12;59.74;98821.09;3161158;28;20048;-64
2023/04/02 04:49:36;;;;;;;2.58;1.60;;;;;;;10.13;60.04;98821.91;3160771;27;20078;-64
2023/04/02 04:51:10;;;;;;;2.92;1.15;;;;;;;9.46;60.20;98709.69;3159532;28;20059;-64
2023/04/02 04:52:43;;;;;;;6.60;2.53;;;;;;;10.15;60.06;98817.47;3159333;28;20581;-64
2023/04/02 04:54:15;;;;;;;4.55;1.35;;;;;;;9.49;60.00;98709.50;3160612;28;20047;-64
2023/04/02 04:55:49;;;;;;;3.85;1.40;;;;;;;10.17;60.08;98816.41;3160057;28;20055;-64
2023/04/02 04:57:29;;;;;;;4.72;1.35;;;;;;;9.84;59.79;98762.03;3159209;28;20604;-64
2023/04/02 04:59:06;;;;;;;4.40;1.40;;;;;;;10.21;59.94;98815.34;3159755;28;20047;-64
2023/04/02 05:00:47;;;;;;;2.97;1.35;;;;;;;10.22;59.38;98819.59;3159809;28;20055;-64
2023/04/02 05:02:24;;;;;;;2.97;1.30;;;;;;;9.87;59.44;98758.41;3160399;28;20052;-64
2023/04/02 05:04:03;;;;;;;2.08;0.98;;;;;;;10.28;59.30;98815.00;3159749;28;20122;-65
2023/04/02 05:05:39;;;;;;;1.65;0.85;;;;;;;10.31;59.08;98822.63;3158922;28;20057;-64
2023/04/02 05:07:15;;;;;;;2.00;1.30;;;;;;;10.35;59.19;98822.34;3160411;28;20055;-64
2023/04/02 05:08:51;;;;;;;2.80;1.40;;;;;;;10.40;59.08;98830.69;3160295;28;20062;-65
2023/04/02 05:10:31;;;;;;;2.83;1.40;;;;;;;10.44;58.72;98836.56;3160327;28;20138;-65
2023/04/02 05:12:12;;;;;;;3.40;1.50;;;;;;;10.47;58.75;98839.00;3160777;28;20598;-65
2023/04/02 05:13:50;;;;;;;4.57;1.55;;;;;;;10.50;58.30;98836.22;3159676;28;20051;-63
2023/04/02 05:15:30;;;;;;;4.03;1.88;;;;;;;10.55;58.45;98836.75;3159472;28;20066;-63
2023/04/02 05:17:06;;;;;;;2.50;1.20;;;;;;;10.60;58.24;98839.91;3158566;28;20056;-62
2023/04/02 05:18:43;;;;;;;4.18;1.50;;;;;;;10.66;58.24;98836.94;3157466;28;20047;-64
2023/04/02 05:20:21;;;;;;;4.53;1.80;;;;;;;10.69;57.93;98844.56;3158333;28;20063;-64
2023/04/02 05:21:59;;;;;;;5.60;1.10;;;;;;;10.76;58.01;98852.00;3158339;28;20056;-64
2023/04/02 05:23:37;;;;;;;2.65;1.40;;;;;;;10.79;57.87;98841.41;3158815;28;20039;-63
2023/04/02 05:25:22;;;;;;;4.25;1.30;;;;;;;10.83;57.69;98843.75;3160021;28;20048;-64
2023/04/02 05:26:59;;;;;;;4.53;1.40;;;;;;;10.87;57.44;98845.22;3158685;28;20373;-63
2023/04/02 05:28:37;;;;;;;2.97;1.50;;;;;;;10.94;57.58;98853.47;3159891;28;20047;-61
2023/04/02 05:30:33;;;;;;;3.55;1.75;;;;;;;10.98;57.05;98846.34;3159493;28;20124;-62
2023/04/02 05:32:11;;;;;;;3.20;2.03;;;;;;;11.02;57.34;98842.59;3162418;28;20562;-62
2023/04/02 05:33:46;;;;;;;4.43;2.17;;;;;;;11.06;57.17;98850.13;3158853;28;20066;-61
2023/04/02 05:35:23;;;;;;;4.22;2.17;;;;;;;11.10;56.79;98851.59;3159919;28;20624;-62
2023/04/02 05:36:55;;;;;;;6.72;2.72;;;;;;;10.80;56.65;98793.63;3157869;28;20083;-64
2023/04/02 05:38:28;;;;;;;3.00;2.10;;;;;;;10.80;56.56;98789.22;3158571;28;20048;-65
2023/04/02 05:40:13;;;;;;;6.55;2.33;;;;;;;11.25;56.32;98855.03;3156118;28;20075;-65
2023/04/02 05:41:46;;;;;;;3.88;2.45;;;;;;;11.29;56.57;98859.09;3157444;28;20588;-65
2023/04/02 05:43:22;;;;;;;3.03;1.77;;;;;;;11.37;56.48;98861.22;3158342;28;20047;-65
2023/04/02 05:45:19;;;;;;;2.47;1.52;;;;;;;11.47;56.11;98856.25;3159111;28;20720;-65
2023/04/02 05:46:55;;;;;;;3.35;1.80;;;;;;;11.61;55.80;98870.09;3158828;28;20062;-65
2023/04/02 05:48:34;;;;;;;4.88;2.33;;;;;;;11.74;55.77;98864.94;3156124;28;20162;-65
2023/04/02 05:50:24;;;;;;;3.60;1.60;;;;;;;11.93;55.11;98871.59;3159206;28;20629;-66
2023/04/02 05:52:00;;;;;;;6.13;1.80;;;;;;;12.11;54.64;98859.09;3157160;28;20204;-64
2023/04/02 05:53:36;;;;;;;2.83;1.80;;;;;;;12.25;54.67;98859.84;3157306;28;20109;-64
2023/04/02 05:55:36;;;;;;;3.75;1.40;;;;;;;12.37;54.25;98857.34;3159558;28;20055;-64
2023/04/02 05:57:13;;;;;;;3.97;2.10;;;;;;;12.44;53.83;98861.22;3159880;28;20065;-64
2023/04/02 05:58:49;;;;;;;4.68;1.85;;;;;;;12.04;53.49;98796.88;3159247;28;20785;-64
2023/04/02 06:00:42;;;;;;;3.17;1.83;;;;;;;12.44;53.45;98864.66;3159777;28;20043;-65
2023/04/02 06:02:22;;;;;;;3.83;1.65;;;;;;;11.84;53.72;98766.03;3158814;28;20152;-64
2023/04/02 06:04:02;;;;;;;3.33;1.85;;;;;;;12.53;53.47;98865.81;3157881;28;20598;-64
2023/04/02 06:05:39;;;;;;;4.75;2.60;;;;;;;12.62;53.02;98864.34;3158184;28;20842;-63
2023/04/02 06:07:15;;;;;;;4.40;1.67;;;;;;;12.76;53.17;98869.47;3160346;28;20142;-63
2023/04/02 06:09:04;;;;;;;4.35;2.05;;;;;;;12.86;52.41;98875.72;3161088;28;20456;-61
2023/04/02 06:10:43;;;;;;;58.38;30.95;;;;;;;12.87;52.62;98874.78;3160169;28;20090;-64
2023/04/02 06:12:28;;;;;;;36.05;22.77;;;;;;;12.91;52.65;98880.63;3162775;28;20051;-64
2023/04/02 06:13:59;;;;;;;5.82;2.78;;;;;;;12.94;52.15;98877.81;3161891;28;20512;-63
2023/04/02 06:15:33;;;;;;;4.35;1.70;;;;;;;12.98;52.31;98877.50;3162629;28;20093;-63
2023/04/02 06:17:05;;;;;;;3.42;1.90;;;;;;;13.06;52.04;98876.13;3162860;28;20470;-63
2023/04/02 06:18:36;;;;;;;4.37;1.90;;;;;;;13.12;51.68;98884.34;3163165;28;20084;-64
2023/04/02 06:20:16;;;;;;;1.98;1.35;;;;;;;13.19;51.42;98871.69;3156075;28;20333;-63
2023/04/02 06:21:51;;;;;;;3.42;1.52;;;;;;;12.75;51.14;98789.44;3156063;28;20362;-64
2023/04/02 06:23:29;;;;;;;1.95;1.10;;;;;;;13.30;50.88;98871.78;3162877;28;20043;-64
2023/04/02 06:25:05;;;;;;;555.47;241.82;;;;;;;13.34;50.61;98881.09;3161620;28;20513;-66
2023/04/02 06:26:41;;;;;;;182.57;81.38;;;;;;;13.37;50.49;98873.03;3161647;28;20047;-66
2023/04/02 06:28:18;;;;;;;64.03;36.85;;;;;;;13.42;50.47;98880.53;3158881;28;20048;-67
2023/04/02 06:29:54;;;;;;;24.95;15.80;;;;;;;13.41;50.20;98877.09;3162879;28;20087;-63
2023/04/02 06:31:34;;;;;;;10.07;6.38;;;;;;;13.44;50.23;98876.03;3161511;28;20070;-69
2023/04/02 06:33:07;;;;;;;5.13;2.70;;;;;;;13.42;50.07;98881.38;3161007;28;20052;-65
2023/04/02 06:34:41;;;;;;;7.20;3.55;;;;;;;13.39;49.91;98875.53;3162037;28;20068;-67
2023/04/02 06:36:15;;;;;;;14.02;6.55;;;;;;;13.46;50.16;98895.09;3162568;28;20852;-65
2023/04/02 06:37:49;;;;;;;8.30;4.65;;;;;;;13.47;49.68;98893.31;3161802;28;20218;-66
2023/04/02 06:39:23;;;;;;;76.93;37.17;;;;;;;13.48;49.93;98898.41;3162747;28;20621;-64
2023/04/02 06:40:59;;;;;;;11.75;3.90;;;;;;;13.53;49.97;98890.25;3161204;28;20168;-64
2023/04/02 06:42:34;;;;;;;2.28;1.30;;;;;;;13.55;49.87;98893.59;3161061;28;20051;-64
2023/04/02 06:44:13;;;;;;;1.17;0.93;;;;;;;13.57;49.75;98897.75;3161692;28;20051;-63
2023/04/02 06:45:47;;;;;;;4.35;1.10;;;;;;;13.61;49.57;98893.97;3160976;28;20686;-65
2023/04/02 06:47:32;;;;;;;4.68;1.48;;;;;;;13.55;49.45;98886.56;3160236;28;20512;-64
2023/04/02 06:49:14;;;;;;;6.20;1.10;;;;;;;13.67;49.15;98894.50;3161195;28;20514;-62
2023/04/02 06:50:49;;;;;;;3.42;1.35;;;;;;;13.71;48.99;98891.53;3160595;28;20051;-63
2023/04/02 06:52:27;;;;;;;5.97;1.13;;;;;;;13.75;48.47;98892.13;3159936;28;20163;-66
2023/04/02 06:53:59;;;;;;;1.98;0.80;;;;;;;13.78;48.17;98900.63;3160436;28;20062;-64
2023/04/02 06:55:43;;;;;;;1.73;0.60;;;;;;;13.82;48.04;98904.66;3161173;28;20043;-65
2023/04/02 06:57:15;;;;;;;2.70;0.85;;;;;;;13.83;47.37;98898.47;3159894;28;20134;-63
2023/04/02 06:58:46;;;;;;;1.38;0.57;;;;;;;13.79;47.10;98883.97;3161091;28;20128;-64
2023/04/02 07:00:26;;;;;;;2.08;0.80;;;;;;;13.90;47.16;98898.84;3162187;28;20941;-66
2023/04/02 07:02:02;;;;;;;3.40;0.80;;;;;;;13.94;46.96;98905.56;3162164;28;20051;-64
2023/04/02 07:03:34;;;;;;;2.20;0.80;;;;;;;13.95;46.69;98899.38;3160932;28;20063;-64
2023/04/02 07:05:08;;;;;;;2.53;0.90;;;;;;;14.02;46.74;98910.22;3161329;28;20562;-65
2023/04/02 07:06:40;;;;;;;2.92;0.98;;;;;;;14.04;46.72;98908.31;3162132;28;20051;-65
2023/04/02 07:08:14;;;;;;;4.28;0.98;;;;;;;14.07;46.61;98903.69;3161861;28;20162;-67
2023/04/02 07:09:46;;;;;;;2.92;1.00;;;;;;;14.10;46.54;98910.50;3161367;28;20059;-65
2023/04/02 07:11:21;;;;;;;3.67;0.93;;;;;;;14.12;46.40;98908.59;3160594;28;20055;-65
2023/04/02 07:12:53;;;;;;;14.65;8.38;;;;;;;14.14;46.32;98909.34;3160762;28;20103;-64
2023/04/02 07:14:25;;;;;;;20.48;11.48;;;;;;;14.17;46.17;98914.34;3161952;28;20109;-64
2023/04/02 07:15:57;;;;;;;10.77;6.18;;;;;;;14.20;46.25;98913.28;3162500;28;20048;-67
2023/04/02 07:17:29;;;;;;;20.35;10.68;;;;;;;14.25;46.04;98919.81;3161497;28;20059;-64
2023/04/02 07:19:03;;;;;;;6.43;2.10;;;;;;;14.28;45.96;98918.75;3159858;28;20051;-69
2023/04/02 07:20:37;;;;;;;18.75;8.82;;;;;;;14.32;45.77;98915.81;3160705;28;20112;-69
2023/04/02 07:22:08;;;;;;;2.22;1.30;;;;;;;14.37;45.61;98917.25;3161070;28;20082;-70
2023/04/02 07:23:42;;;;;;;4.45;1.30;;;;;;;14.39;45.41;98929.28;3160485;28;20116;-69
2023/04/02 07:25:15;;;;;;;2.60;1.02;;;;;;;14.41;45.39;98923.94;3159251;28;20052;-68
2023/04/02 07:26:47;;;;;;;2.22;1.23;;;;;;;14.42;45.07;98930.84;3160599;28;20078;-70
2023/04/02 07:28:19;;;;;;;2.25;1.23;;;;;;;14.46;45.16;98937.50;3161458;28;20066;-69
2023/04/02 07:29:52;;;;;;;5.15;1.13;;;;;;;14.48;45.30;98931.22;3161530;28;20488;-67
2023/04/02 07:31:25;;;;;;;3.58;1.10;;;;;;;14.52;45.08;98930.06;3161561;28;20506;-73
2023/04/02 07:32:57;;;;;;;2.17;1.20;;;;;;;14.10;44.98;98858.13;3160157;28;20052;-70
2023/04/02 07:34:30;;;;;;;1.90;1.00;;;;;;;14.48;44.75;98920.72;3164236;28;20055;-79
2023/04/02 07:36:01;;;;;;;2.53;1.20;;;;;;;14.58;44.51;98944.47;3165477;28;20435;-75
2023/04/02 07:37:33;;;;;;;2.47;1.20;;;;;;;14.60;44.53;98932.09;3169889;28;20101;-76